Scroll down
FLIGHT INFORMATION
Alaska Airlines

ASA835

At Arrival Gate

KSEA
 PHKO
DATE: 2021-11-20
GATE: N11
GATE DEPARTURE: 17:29
TAKEOFF: 17:41
DATE: 2021-11-20
GATE:  -
LANDING: 23:15
GATE ARRIVAL: 23:21
FLIGHT DATA
Crew: 
Speed: 
469 kts
Altitude: 
38,072 ft
Stage Length: 
2,336.2 nm
Block Time: 
5.8 hrs
Flight Time: 
5.6 hrs
Fuel Used: 
30,885 lb
Cleared Route: KSEA HQM SEDAR 44N30 41N35 38N40 33N45 29N50 APACK UPP PHKO
TRACK DATA
50,000 ft 1,000 kts
AIRCRAFT INFO AND CUMULATIVE STATS
Aircraft Type: 
B738SSW
Registration: 
SELCAL: 
ALEP
MSN/LN: 
35203 / 3893
Operator: 
Total Flights: 
3
Total Block Time: 
10.1 hrs
Total Flight Time: 
9.5 hrs
Total Fuel Used: 
51,825 lb
DATALINK LOG | Newest first | Current as of: 2022-09-29 23:40:37
LABEL SEQUENCE CONTENT Dn/Up
QD253123:21 10.3▼ Dn
QC202623:15▼ Dn
2U3346PHKO 202353Z 24008KT 10SM SCT050 29/20 A2996 RMK AO2 SLP144 T02940200 10300 20256 58020▲ Up
2S3744PHKO▼ Dn
2U1858PHKO 202253Z 20009KT 10SM SCT050 29/19 A2998 RMK AO2 SLP151 T02940194▲ Up
2S2232PHKO▼ Dn
5R213133N45 20:42z FL359 29N50 21:30z N2645.8W15257.8 M0.79 22.2 -57 275/34 PHKO 23:12z▼ Dn
2U4617PHOG 202054Z 05013G18KT 10SM FEW030 31/19 A3002 RMK AO2 SLP172 T03110194 58004▲ Up
2U4617PHKO 202053Z 21009KT 10SM FEW059 29/21 A3002 RMK AO2 SLP164 T02890211 50001▲ Up
2S5001PHKO PHOG▼ Dn
QB450117:41▼ Dn
QA335217:29 41.2▼ Dn
Q01131[LINK ACK]▲ Up
Q01131[LINK TEST]▼ Dn


AIRCRAFT HISTORY
FLIGHT DATE FLIGHT NO. ORIGIN DESTINATION CLEARED ROUTE BLOCK TIME FLIGHT TIME FUEL USED PILOT
2021-11-20ASA835KSEA PHKO KSEA HQM SEDAR 44N30 41N35 38N40 33N45 29N50 APACK UPP PHKO5.8 hrs5.6 hrs30,885 lbRyan Syferd
2021-05-01ASA501PANC KSEA PANC NOEND LAIRE BKA DUGGS YYJ ORCUS MARNR BOANE NEHOS GRIFY KENMO RW16L3 hrs2.8 hrs14,418 lbRandall Smith
2020-12-22ASA575PABE PANC PABE AKGAS PANC1.3 hrs1.1 hrs6,521 lbZsolt Szivak